This is the latest recevied weather packets stored in our database for station/object BM1CKC-10. If no packets are shown the sender has not sent any weather packets the latest 10 day(s).
| Time | Temp. | Humidity | Pressure | Rain* | Wind** | Luminosity | Snow |
|---|---|---|---|---|---|---|---|
| 1778158198 | 28.33° C | 65% | 1005.9 hPa | - | - | - | - |
| 1778156999 | 28.33° C | 65% | 1005.9 hPa | - | - | - | - |
| 1778155799 | 28.89° C | 63% | 1005.7 hPa | - | - | - | - |
| 1778154599 | 28.89° C | 62% | 1005.5 hPa | - | - | - | - |
| 1778153399 | 28.89° C | 62% | 1005.3 hPa | - | - | - | - |
| 1778152199 | 28.89° C | 62% | 1005.1 hPa | - | - | - | - |
| 1778150999 | 28.89° C | 62% | 1004.9 hPa | - | - | - | - |
| 1778149799 | 28.33° C | 64% | 1004.7 hPa | - | - | - | - |
| 1778148599 | 30° C | 59% | 1004.7 hPa | - | - | - | - |
| 1778147399 | 29.44° C | 60% | 1004.8 hPa | - | - | - | - |
| 1778146199 | 28.33° C | 63% | 1004.4 hPa | - | - | - | - |
| 1778144999 | 28.89° C | 61% | 1004.3 hPa | - | - | - | - |
| 1778143799 | 28.33° C | 63% | 1004.2 hPa | - | - | - | - |
| 1778142599 | 28.33° C | 63% | 1004.1 hPa | - | - | - | - |
| 1778141399 | 28.33° C | 63% | 1004 hPa | - | - | - | - |
| 1778140199 | 28.33° C | 63% | 1003.9 hPa | - | - | - | - |
| 1778138998 | 28.33° C | 63% | 1004 hPa | - | - | - | - |
| 1778137811 | 28.33° C | 63% | 1004.1 hPa | - | - | - | - |
| 1778136599 | 27.78° C | 63% | 1004.2 hPa | - | - | - | - |
| 1778135399 | 28.33° C | 63% | 1004.2 hPa | - | - | - | - |
| 1778134199 | 28.33° C | 62% | 1004.6 hPa | - | - | - | - |
| 1778132999 | 27.78° C | 63% | 1004.8 hPa | - | - | - | - |
| 1778131808 | 27.78° C | 63% | 1004.9 hPa | - | - | - | - |
| 1778130599 | 27.78° C | 63% | 1005.2 hPa | - | - | - | - |
| 1778129399 | 27.78° C | 63% | 1005.4 hPa | - | - | - | - |
* Rain since midnight (hover to see other rain measurements)
** Current wind speed in m/s (hover to see current wind gust speed)